sensor_id;sensor_type;location;lat;lon;timestamp;P1;durP1;ratioP1;P2;durP2;ratioP2
41572;SDS011;27286;47.870;19.006;2022-08-21T00:02:18;3.40;;;2.05;;
41572;SDS011;27286;47.870;19.006;2022-08-21T00:07:14;3.40;;;2.10;;
41572;SDS011;27286;47.870;19.006;2022-08-21T00:09:40;4.05;;;2.42;;
41572;SDS011;27286;47.870;19.006;2022-08-21T00:12:08;5.65;;;2.30;;
41572;SDS011;27286;47.870;19.006;2022-08-21T00:14:36;2.70;;;1.90;;
41572;SDS011;27286;47.870;19.006;2022-08-21T00:17:02;3.58;;;1.88;;
41572;SDS011;27286;47.870;19.006;2022-08-21T00:19:30;3.42;;;2.03;;
41572;SDS011;27286;47.870;19.006;2022-08-21T00:21:56;2.75;;;1.73;;
41572;SDS011;27286;47.870;19.006;2022-08-21T00:24:22;3.05;;;1.48;;
41572;SDS011;27286;47.870;19.006;2022-08-21T00:26:48;2.72;;;1.63;;
41572;SDS011;27286;47.870;19.006;2022-08-21T00:29:14;2.95;;;1.67;;
41572;SDS011;27286;47.870;19.006;2022-08-21T00:31:40;2.60;;;1.80;;
41572;SDS011;27286;47.870;19.006;2022-08-21T00:34:06;2.60;;;1.85;;
41572;SDS011;27286;47.870;19.006;2022-08-21T00:36:32;4.10;;;1.95;;
41572;SDS011;27286;47.870;19.006;2022-08-21T00:38:59;4.93;;;1.90;;
41572;SDS011;27286;47.870;19.006;2022-08-21T00:41:25;2.88;;;1.58;;
41572;SDS011;27286;47.870;19.006;2022-08-21T00:43:52;2.58;;;1.65;;
41572;SDS011;27286;47.870;19.006;2022-08-21T00:46:18;2.65;;;1.77;;
41572;SDS011;27286;47.870;19.006;2022-08-21T00:48:44;4.78;;;2.00;;
41572;SDS011;27286;47.870;19.006;2022-08-21T00:51:17;2.78;;;1.73;;
41572;SDS011;27286;47.870;19.006;2022-08-21T00:53:48;2.45;;;1.65;;
41572;SDS011;27286;47.870;19.006;2022-08-21T00:58:54;4.90;;;2.53;;
41572;SDS011;27286;47.870;19.006;2022-08-21T01:01:21;5.25;;;2.30;;
41572;SDS011;27286;47.870;19.006;2022-08-21T01:03:46;3.75;;;2.33;;
41572;SDS011;27286;47.870;19.006;2022-08-21T01:06:13;4.03;;;2.17;;
41572;SDS011;27286;47.870;19.006;2022-08-21T01:08:38;4.30;;;3.05;;
41572;SDS011;27286;47.870;19.006;2022-08-21T01:11:04;4.97;;;2.88;;
41572;SDS011;27286;47.870;19.006;2022-08-21T01:13:32;3.45;;;2.20;;
41572;SDS011;27286;47.870;19.006;2022-08-21T01:16:01;4.15;;;2.97;;
41572;SDS011;27286;47.870;19.006;2022-08-21T01:21:15;5.25;;;3.42;;
41572;SDS011;27286;47.870;19.006;2022-08-21T01:26:28;4.07;;;2.95;;
41572;SDS011;27286;47.870;19.006;2022-08-21T01:29:03;4.00;;;2.67;;
41572;SDS011;27286;47.870;19.006;2022-08-21T01:31:35;7.50;;;3.42;;
41572;SDS011;27286;47.870;19.006;2022-08-21T01:34:02;5.18;;;3.63;;
41572;SDS011;27286;47.870;19.006;2022-08-21T01:36:28;8.32;;;4.03;;
41572;SDS011;27286;47.870;19.006;2022-08-21T01:38:54;4.60;;;2.90;;
41572;SDS011;27286;47.870;19.006;2022-08-21T01:51:36;5.15;;;3.83;;
41572;SDS011;27286;47.870;19.006;2022-08-21T01:56:37;6.30;;;3.42;;
41572;SDS011;27286;47.870;19.006;2022-08-21T01:59:08;4.10;;;2.92;;
41572;SDS011;27286;47.870;19.006;2022-08-21T02:01:34;4.90;;;3.45;;
41572;SDS011;27286;47.870;19.006;2022-08-21T02:04:01;6.72;;;3.70;;
41572;SDS011;27286;47.870;19.006;2022-08-21T02:06:28;7.50;;;4.13;;
41572;SDS011;27286;47.870;19.006;2022-08-21T02:08:54;5.55;;;3.97;;
41572;SDS011;27286;47.870;19.006;2022-08-21T02:11:19;5.38;;;3.92;;
41572;SDS011;27286;47.870;19.006;2022-08-21T02:13:45;5.38;;;4.03;;
41572;SDS011;27286;47.870;19.006;2022-08-21T02:16:11;6.05;;;4.32;;
41572;SDS011;27286;47.870;19.006;2022-08-21T02:18:38;6.28;;;3.97;;
41572;SDS011;27286;47.870;19.006;2022-08-21T02:21:04;7.30;;;3.83;;
41572;SDS011;27286;47.870;19.006;2022-08-21T02:23:30;6.43;;;4.50;;
41572;SDS011;27286;47.870;19.006;2022-08-21T02:26:01;5.07;;;3.78;;
41572;SDS011;27286;47.870;19.006;2022-08-21T02:28:29;5.32;;;3.63;;
41572;SDS011;27286;47.870;19.006;2022-08-21T02:33:30;7.22;;;4.68;;
41572;SDS011;27286;47.870;19.006;2022-08-21T02:35:58;6.65;;;5.07;;
41572;SDS011;27286;47.870;19.006;2022-08-21T02:38:25;7.38;;;4.40;;
41572;SDS011;27286;47.870;19.006;2022-08-21T02:40:53;7.53;;;5.07;;
41572;SDS011;27286;47.870;19.006;2022-08-21T02:43:20;6.95;;;4.40;;
41572;SDS011;27286;47.870;19.006;2022-08-21T02:45:50;10.10;;;5.22;;
41572;SDS011;27286;47.870;19.006;2022-08-21T02:48:17;6.32;;;4.50;;
41572;SDS011;27286;47.870;19.006;2022-08-21T02:50:55;6.40;;;3.65;;
41572;SDS011;27286;47.870;19.006;2022-08-21T02:53:26;9.93;;;4.97;;
41572;SDS011;27286;47.870;19.006;2022-08-21T02:55:53;8.68;;;4.70;;
41572;SDS011;27286;47.870;19.006;2022-08-21T02:58:21;9.38;;;4.47;;
41572;SDS011;27286;47.870;19.006;2022-08-21T03:00:48;8.20;;;4.60;;
41572;SDS011;27286;47.870;19.006;2022-08-21T03:03:15;7.68;;;5.22;;
41572;SDS011;27286;47.870;19.006;2022-08-21T03:05:41;6.43;;;4.68;;
41572;SDS011;27286;47.870;19.006;2022-08-21T03:08:09;5.50;;;4.07;;
41572;SDS011;27286;47.870;19.006;2022-08-21T03:10:39;8.38;;;5.15;;
41572;SDS011;27286;47.870;19.006;2022-08-21T03:13:10;7.78;;;4.90;;
41572;SDS011;27286;47.870;19.006;2022-08-21T03:15:36;7.05;;;4.57;;
41572;SDS011;27286;47.870;19.006;2022-08-21T03:18:03;6.97;;;5.18;;
41572;SDS011;27286;47.870;19.006;2022-08-21T03:20:30;6.90;;;4.65;;
41572;SDS011;27286;47.870;19.006;2022-08-21T03:22:59;7.57;;;5.20;;
41572;SDS011;27286;47.870;19.006;2022-08-21T03:25:25;8.63;;;4.28;;
41572;SDS011;27286;47.870;19.006;2022-08-21T03:27:52;8.98;;;4.65;;
41572;SDS011;27286;47.870;19.006;2022-08-21T03:30:20;7.47;;;5.28;;
41572;SDS011;27286;47.870;19.006;2022-08-21T03:32:46;7.90;;;4.70;;
41572;SDS011;27286;47.870;19.006;2022-08-21T03:35:12;7.18;;;4.90;;
41572;SDS011;27286;47.870;19.006;2022-08-21T03:37:38;7.13;;;5.20;;
41572;SDS011;27286;47.870;19.006;2022-08-21T03:40:05;9.40;;;4.97;;
41572;SDS011;27286;47.870;19.006;2022-08-21T03:42:32;7.45;;;4.55;;
41572;SDS011;27286;47.870;19.006;2022-08-21T03:44:57;7.55;;;4.93;;
41572;SDS011;27286;47.870;19.006;2022-08-21T03:47:23;7.50;;;5.60;;
41572;SDS011;27286;47.870;19.006;2022-08-21T03:49:48;10.20;;;4.75;;
41572;SDS011;27286;47.870;19.006;2022-08-21T03:52:14;7.03;;;5.28;;
41572;SDS011;27286;47.870;19.006;2022-08-21T03:54:40;8.63;;;5.05;;
41572;SDS011;27286;47.870;19.006;2022-08-21T03:57:07;6.72;;;4.63;;
41572;SDS011;27286;47.870;19.006;2022-08-21T03:59:32;6.00;;;3.85;;
41572;SDS011;27286;47.870;19.006;2022-08-21T04:01:59;6.65;;;4.57;;
41572;SDS011;27286;47.870;19.006;2022-08-21T04:04:26;6.03;;;4.78;;
41572;SDS011;27286;47.870;19.006;2022-08-21T04:06:54;8.60;;;4.60;;
41572;SDS011;27286;47.870;19.006;2022-08-21T04:09:20;8.32;;;5.45;;
41572;SDS011;27286;47.870;19.006;2022-08-21T04:11:48;11.65;;;4.93;;
41572;SDS011;27286;47.870;19.006;2022-08-21T04:14:14;7.00;;;5.50;;
41572;SDS011;27286;47.870;19.006;2022-08-21T04:16:41;7.10;;;5.10;;
41572;SDS011;27286;47.870;19.006;2022-08-21T04:19:07;8.07;;;5.60;;
41572;SDS011;27286;47.870;19.006;2022-08-21T04:21:33;7.90;;;5.60;;
41572;SDS011;27286;47.870;19.006;2022-08-21T04:24:01;7.07;;;4.90;;
41572;SDS011;27286;47.870;19.006;2022-08-21T04:26:27;5.60;;;4.70;;
41572;SDS011;27286;47.870;19.006;2022-08-21T04:28:53;9.15;;;5.72;;
41572;SDS011;27286;47.870;19.006;2022-08-21T04:31:18;8.70;;;4.63;;
41572;SDS011;27286;47.870;19.006;2022-08-21T04:33:43;15.25;;;6.68;;
41572;SDS011;27286;47.870;19.006;2022-08-21T04:36:10;6.15;;;5.00;;
41572;SDS011;27286;47.870;19.006;2022-08-21T04:38:36;10.02;;;5.93;;
41572;SDS011;27286;47.870;19.006;2022-08-21T04:41:02;7.65;;;4.45;;
41572;SDS011;27286;47.870;19.006;2022-08-21T04:43:27;6.55;;;5.00;;
41572;SDS011;27286;47.870;19.006;2022-08-21T04:45:53;8.77;;;5.30;;
41572;SDS011;27286;47.870;19.006;2022-08-21T04:48:21;7.25;;;4.75;;
41572;SDS011;27286;47.870;19.006;2022-08-21T04:56:13;7.60;;;5.50;;
41572;SDS011;27286;47.870;19.006;2022-08-21T04:58:43;7.28;;;4.40;;
41572;SDS011;27286;47.870;19.006;2022-08-21T05:01:10;6.60;;;4.47;;
41572;SDS011;27286;47.870;19.006;2022-08-21T05:03:39;5.95;;;4.65;;
41572;SDS011;27286;47.870;19.006;2022-08-21T05:06:07;8.98;;;5.82;;
41572;SDS011;27286;47.870;19.006;2022-08-21T05:08:35;5.38;;;3.50;;
41572;SDS011;27286;47.870;19.006;2022-08-21T05:11:03;5.82;;;3.65;;
41572;SDS011;27286;47.870;19.006;2022-08-21T05:13:29;6.47;;;4.28;;
41572;SDS011;27286;47.870;19.006;2022-08-21T05:15:55;5.70;;;4.10;;
41572;SDS011;27286;47.870;19.006;2022-08-21T05:18:21;7.07;;;3.47;;
41572;SDS011;27286;47.870;19.006;2022-08-21T05:20:46;3.85;;;2.75;;
41572;SDS011;27286;47.870;19.006;2022-08-21T05:23:12;5.50;;;2.80;;
41572;SDS011;27286;47.870;19.006;2022-08-21T05:25:39;4.03;;;3.00;;
41572;SDS011;27286;47.870;19.006;2022-08-21T05:28:05;5.10;;;3.03;;
41572;SDS011;27286;47.870;19.006;2022-08-21T05:30:31;4.38;;;2.40;;
41572;SDS011;27286;47.870;19.006;2022-08-21T05:32:58;5.45;;;2.53;;
41572;SDS011;27286;47.870;19.006;2022-08-21T05:35:25;4.93;;;2.35;;
41572;SDS011;27286;47.870;19.006;2022-08-21T05:37:50;6.20;;;2.90;;
41572;SDS011;27286;47.870;19.006;2022-08-21T05:40:16;3.97;;;2.20;;
41572;SDS011;27286;47.870;19.006;2022-08-21T05:42:42;4.35;;;2.10;;
41572;SDS011;27286;47.870;19.006;2022-08-21T05:45:07;5.25;;;3.13;;
41572;SDS011;27286;47.870;19.006;2022-08-21T05:47:33;4.03;;;2.20;;
41572;SDS011;27286;47.870;19.006;2022-08-21T05:49:58;6.10;;;2.92;;
41572;SDS011;27286;47.870;19.006;2022-08-21T05:52:23;4.22;;;2.47;;
41572;SDS011;27286;47.870;19.006;2022-08-21T05:54:49;7.78;;;2.85;;
41572;SDS011;27286;47.870;19.006;2022-08-21T05:57:15;4.20;;;2.30;;
41572;SDS011;27286;47.870;19.006;2022-08-21T05:59:41;4.15;;;2.40;;
41572;SDS011;27286;47.870;19.006;2022-08-21T06:02:06;4.60;;;2.67;;
41572;SDS011;27286;47.870;19.006;2022-08-21T06:04:37;4.00;;;2.13;;
41572;SDS011;27286;47.870;19.006;2022-08-21T06:07:06;3.83;;;2.35;;
41572;SDS011;27286;47.870;19.006;2022-08-21T06:09:32;3.53;;;2.38;;
41572;SDS011;27286;47.870;19.006;2022-08-21T06:11:58;5.63;;;3.13;;
41572;SDS011;27286;47.870;19.006;2022-08-21T06:14:28;3.85;;;2.50;;
41572;SDS011;27286;47.870;19.006;2022-08-21T06:16:54;6.10;;;2.47;;
41572;SDS011;27286;47.870;19.006;2022-08-21T06:19:19;4.70;;;2.75;;
41572;SDS011;27286;47.870;19.006;2022-08-21T06:21:45;4.30;;;2.58;;
41572;SDS011;27286;47.870;19.006;2022-08-21T06:24:10;6.20;;;3.08;;
41572;SDS011;27286;47.870;19.006;2022-08-21T06:26:35;3.45;;;2.65;;
41572;SDS011;27286;47.870;19.006;2022-08-21T06:29:02;4.63;;;2.55;;
41572;SDS011;27286;47.870;19.006;2022-08-21T06:31:27;7.05;;;2.60;;
41572;SDS011;27286;47.870;19.006;2022-08-21T06:33:54;3.58;;;2.65;;
41572;SDS011;27286;47.870;19.006;2022-08-21T06:36:19;6.15;;;3.28;;
41572;SDS011;27286;47.870;19.006;2022-08-21T06:38:45;4.13;;;2.85;;
41572;SDS011;27286;47.870;19.006;2022-08-21T06:41:11;6.18;;;3.33;;
41572;SDS011;27286;47.870;19.006;2022-08-21T06:43:37;3.75;;;2.58;;
41572;SDS011;27286;47.870;19.006;2022-08-21T06:46:03;3.80;;;3.08;;
41572;SDS011;27286;47.870;19.006;2022-08-21T06:48:28;4.10;;;2.85;;
41572;SDS011;27286;47.870;19.006;2022-08-21T06:50:56;6.18;;;3.15;;
41572;SDS011;27286;47.870;19.006;2022-08-21T06:53:23;4.75;;;3.22;;
41572;SDS011;27286;47.870;19.006;2022-08-21T06:55:48;5.80;;;2.85;;
41572;SDS011;27286;47.870;19.006;2022-08-21T06:58:14;4.38;;;3.00;;
41572;SDS011;27286;47.870;19.006;2022-08-21T07:00:42;4.38;;;2.72;;
41572;SDS011;27286;47.870;19.006;2022-08-21T07:03:24;4.65;;;2.50;;
41572;SDS011;27286;47.870;19.006;2022-08-21T07:05:52;3.75;;;2.75;;
41572;SDS011;27286;47.870;19.006;2022-08-21T07:08:18;5.53;;;3.08;;
41572;SDS011;27286;47.870;19.006;2022-08-21T07:10:44;4.25;;;2.58;;
41572;SDS011;27286;47.870;19.006;2022-08-21T07:13:10;4.32;;;2.60;;
41572;SDS011;27286;47.870;19.006;2022-08-21T07:15:36;3.85;;;2.63;;
41572;SDS011;27286;47.870;19.006;2022-08-21T07:18:01;3.33;;;2.10;;
41572;SDS011;27286;47.870;19.006;2022-08-21T07:20:28;3.70;;;2.67;;
41572;SDS011;27286;47.870;19.006;2022-08-21T07:22:55;4.43;;;2.50;;
41572;SDS011;27286;47.870;19.006;2022-08-21T07:25:25;4.40;;;3.03;;
41572;SDS011;27286;47.870;19.006;2022-08-21T07:27:51;4.30;;;2.65;;
41572;SDS011;27286;47.870;19.006;2022-08-21T07:30:16;5.10;;;2.33;;
41572;SDS011;27286;47.870;19.006;2022-08-21T07:32:42;6.45;;;2.47;;
41572;SDS011;27286;47.870;19.006;2022-08-21T07:35:07;4.32;;;2.25;;
41572;SDS011;27286;47.870;19.006;2022-08-21T07:37:32;3.65;;;2.45;;
41572;SDS011;27286;47.870;19.006;2022-08-21T07:39:58;3.78;;;2.50;;
41572;SDS011;27286;47.870;19.006;2022-08-21T07:42:24;4.70;;;2.38;;
41572;SDS011;27286;47.870;19.006;2022-08-21T07:44:49;3.53;;;2.20;;
41572;SDS011;27286;47.870;19.006;2022-08-21T07:47:15;5.15;;;2.22;;
41572;SDS011;27286;47.870;19.006;2022-08-21T07:49:40;3.70;;;2.58;;
41572;SDS011;27286;47.870;19.006;2022-08-21T07:52:05;3.55;;;2.45;;
41572;SDS011;27286;47.870;19.006;2022-08-21T07:54:31;4.28;;;2.58;;
41572;SDS011;27286;47.870;19.006;2022-08-21T07:56:56;4.60;;;2.42;;
41572;SDS011;27286;47.870;19.006;2022-08-21T07:59:21;4.72;;;2.28;;
41572;SDS011;27286;47.870;19.006;2022-08-21T08:01:47;4.97;;;2.63;;
41572;SDS011;27286;47.870;19.006;2022-08-21T08:04:12;5.82;;;2.58;;
41572;SDS011;27286;47.870;19.006;2022-08-21T08:06:40;4.07;;;2.55;;
41572;SDS011;27286;47.870;19.006;2022-08-21T08:09:05;4.57;;;2.65;;
41572;SDS011;27286;47.870;19.006;2022-08-21T08:11:31;5.50;;;2.72;;
41572;SDS011;27286;47.870;19.006;2022-08-21T08:13:56;4.97;;;2.58;;
41572;SDS011;27286;47.870;19.006;2022-08-21T08:16:25;4.55;;;2.15;;
41572;SDS011;27286;47.870;19.006;2022-08-21T08:18:51;4.32;;;2.63;;
41572;SDS011;27286;47.870;19.006;2022-08-21T08:21:17;3.80;;;2.42;;
41572;SDS011;27286;47.870;19.006;2022-08-21T08:23:45;5.93;;;2.25;;
41572;SDS011;27286;47.870;19.006;2022-08-21T08:26:11;4.10;;;2.58;;
41572;SDS011;27286;47.870;19.006;2022-08-21T08:28:36;3.50;;;2.60;;
41572;SDS011;27286;47.870;19.006;2022-08-21T08:31:02;4.10;;;2.67;;
41572;SDS011;27286;47.870;19.006;2022-08-21T08:33:27;3.75;;;2.55;;
41572;SDS011;27286;47.870;19.006;2022-08-21T08:35:53;4.20;;;2.70;;
41572;SDS011;27286;47.870;19.006;2022-08-21T08:38:20;4.10;;;2.63;;
41572;SDS011;27286;47.870;19.006;2022-08-21T08:43:12;4.63;;;3.38;;
41572;SDS011;27286;47.870;19.006;2022-08-21T08:45:39;3.70;;;2.63;;
41572;SDS011;27286;47.870;19.006;2022-08-21T08:48:06;3.80;;;3.05;;
41572;SDS011;27286;47.870;19.006;2022-08-21T08:50:48;4.40;;;3.22;;
41572;SDS011;27286;47.870;19.006;2022-08-21T08:53:18;4.72;;;2.97;;
41572;SDS011;27286;47.870;19.006;2022-08-21T08:55:48;5.28;;;3.13;;
41572;SDS011;27286;47.870;19.006;2022-08-21T08:58:39;5.30;;;3.05;;
41572;SDS011;27286;47.870;19.006;2022-08-21T09:01:07;5.18;;;3.17;;
41572;SDS011;27286;47.870;19.006;2022-08-21T09:03:40;4.05;;;2.95;;
41572;SDS011;27286;47.870;19.006;2022-08-21T09:25:26;6.82;;;3.38;;
41572;SDS011;27286;47.870;19.006;2022-08-21T09:27:55;4.43;;;2.88;;
41572;SDS011;27286;47.870;19.006;2022-08-21T09:30:24;4.07;;;3.33;;
41572;SDS011;27286;47.870;19.006;2022-08-21T09:32:53;5.18;;;3.80;;
41572;SDS011;27286;47.870;19.006;2022-08-21T09:35:20;5.47;;;3.97;;
41572;SDS011;27286;47.870;19.006;2022-08-21T09:37:49;6.47;;;3.40;;
41572;SDS011;27286;47.870;19.006;2022-08-21T09:40:20;4.88;;;3.38;;
41572;SDS011;27286;47.870;19.006;2022-08-21T09:42:56;3.50;;;2.95;;
41572;SDS011;27286;47.870;19.006;2022-08-21T09:45:23;4.05;;;2.78;;
41572;SDS011;27286;47.870;19.006;2022-08-21T09:47:48;4.53;;;3.25;;
41572;SDS011;27286;47.870;19.006;2022-08-21T09:50:15;4.35;;;3.15;;
41572;SDS011;27286;47.870;19.006;2022-08-21T09:52:44;4.03;;;2.88;;
41572;SDS011;27286;47.870;19.006;2022-08-21T09:58:44;5.25;;;3.15;;
41572;SDS011;27286;47.870;19.006;2022-08-21T10:01:14;5.07;;;3.40;;
41572;SDS011;27286;47.870;19.006;2022-08-21T10:03:41;5.38;;;3.13;;
41572;SDS011;27286;47.870;19.006;2022-08-21T10:06:07;6.15;;;2.40;;
41572;SDS011;27286;47.870;19.006;2022-08-21T10:08:37;4.53;;;2.80;;
41572;SDS011;27286;47.870;19.006;2022-08-21T10:11:06;3.92;;;2.53;;
41572;SDS011;27286;47.870;19.006;2022-08-21T10:16:23;4.22;;;2.60;;
41572;SDS011;27286;47.870;19.006;2022-08-21T10:30:21;4.32;;;2.17;;
41572;SDS011;27286;47.870;19.006;2022-08-21T10:33:02;3.20;;;2.00;;
41572;SDS011;27286;47.870;19.006;2022-08-21T10:36:02;3.97;;;2.80;;
41572;SDS011;27286;47.870;19.006;2022-08-21T10:49:25;3.85;;;2.50;;
41572;SDS011;27286;47.870;19.006;2022-08-21T10:59:57;3.08;;;1.60;;
41572;SDS011;27286;47.870;19.006;2022-08-21T11:02:33;4.55;;;2.22;;
41572;SDS011;27286;47.870;19.006;2022-08-21T11:08:14;3.05;;;1.75;;
41572;SDS011;27286;47.870;19.006;2022-08-21T11:10:46;3.35;;;1.52;;
41572;SDS011;27286;47.870;19.006;2022-08-21T11:13:36;3.33;;;1.90;;
41572;SDS011;27286;47.870;19.006;2022-08-21T11:22:48;2.58;;;1.60;;
41572;SDS011;27286;47.870;19.006;2022-08-21T11:25:21;3.90;;;2.03;;
41572;SDS011;27286;47.870;19.006;2022-08-21T11:27:53;3.15;;;1.65;;
41572;SDS011;27286;47.870;19.006;2022-08-21T11:36:27;4.60;;;2.33;;
41572;SDS011;27286;47.870;19.006;2022-08-21T11:39:04;2.33;;;1.58;;
41572;SDS011;27286;47.870;19.006;2022-08-21T11:41:34;2.30;;;1.42;;
41572;SDS011;27286;47.870;19.006;2022-08-21T11:57:32;3.55;;;1.83;;
41572;SDS011;27286;47.870;19.006;2022-08-21T12:00:42;3.95;;;2.08;;
41572;SDS011;27286;47.870;19.006;2022-08-21T12:02:54;3.90;;;2.08;;
41572;SDS011;27286;47.870;19.006;2022-08-21T12:05:27;3.08;;;1.60;;
41572;SDS011;27286;47.870;19.006;2022-08-21T12:08:14;2.95;;;1.67;;
41572;SDS011;27286;47.870;19.006;2022-08-21T12:16:48;1.90;;;1.02;;
41572;SDS011;27286;47.870;19.006;2022-08-21T12:21:51;3.38;;;1.70;;
41572;SDS011;27286;47.870;19.006;2022-08-21T12:30:05;3.72;;;1.30;;
41572;SDS011;27286;47.870;19.006;2022-08-21T12:32:45;2.38;;;1.40;;
41572;SDS011;27286;47.870;19.006;2022-08-21T12:35:20;2.03;;;1.23;;
41572;SDS011;27286;47.870;19.006;2022-08-21T12:37:56;3.17;;;1.15;;
41572;SDS011;27286;47.870;19.006;2022-08-21T12:42:50;2.55;;;1.17;;
41572;SDS011;27286;47.870;19.006;2022-08-21T12:45:19;3.22;;;1.60;;
41572;SDS011;27286;47.870;19.006;2022-08-21T12:47:49;3.38;;;1.90;;
41572;SDS011;27286;47.870;19.006;2022-08-21T12:50:36;2.40;;;1.35;;
41572;SDS011;27286;47.870;19.006;2022-08-21T12:56:10;3.78;;;1.95;;
41572;SDS011;27286;47.870;19.006;2022-08-21T12:58:39;2.90;;;1.50;;
41572;SDS011;27286;47.870;19.006;2022-08-21T13:01:07;3.58;;;1.70;;
41572;SDS011;27286;47.870;19.006;2022-08-21T13:03:41;3.70;;;1.30;;
41572;SDS011;27286;47.870;19.006;2022-08-21T13:06:07;2.00;;;0.98;;
41572;SDS011;27286;47.870;19.006;2022-08-21T13:08:41;3.50;;;1.25;;
41572;SDS011;27286;47.870;19.006;2022-08-21T13:11:08;2.78;;;1.20;;
41572;SDS011;27286;47.870;19.006;2022-08-21T13:13:35;2.03;;;1.05;;
41572;SDS011;27286;47.870;19.006;2022-08-21T13:16:02;2.35;;;1.20;;
41572;SDS011;27286;47.870;19.006;2022-08-21T13:18:32;1.35;;;0.80;;
41572;SDS011;27286;47.870;19.006;2022-08-21T13:21:04;2.03;;;0.80;;
41572;SDS011;27286;47.870;19.006;2022-08-21T13:23:32;2.42;;;0.60;;
41572;SDS011;27286;47.870;19.006;2022-08-21T13:25:58;1.42;;;0.77;;
41572;SDS011;27286;47.870;19.006;2022-08-21T13:28:25;1.50;;;0.90;;
41572;SDS011;27286;47.870;19.006;2022-08-21T13:30:59;1.60;;;0.90;;
41572;SDS011;27286;47.870;19.006;2022-08-21T13:33:26;1.73;;;0.75;;
41572;SDS011;27286;47.870;19.006;2022-08-21T13:38:25;1.35;;;0.60;;
41572;SDS011;27286;47.870;19.006;2022-08-21T13:40:59;1.25;;;0.70;;
41572;SDS011;27286;47.870;19.006;2022-08-21T13:43:44;1.35;;;0.60;;
41572;SDS011;27286;47.870;19.006;2022-08-21T13:46:11;2.13;;;0.80;;
41572;SDS011;27286;47.870;19.006;2022-08-21T13:48:39;1.40;;;0.45;;
41572;SDS011;27286;47.870;19.006;2022-08-21T13:51:07;2.55;;;0.70;;
41572;SDS011;27286;47.870;19.006;2022-08-21T13:53:36;1.85;;;0.70;;
41572;SDS011;27286;47.870;19.006;2022-08-21T13:56:21;2.17;;;0.60;;
41572;SDS011;27286;47.870;19.006;2022-08-21T13:58:53;2.85;;;0.80;;
41572;SDS011;27286;47.870;19.006;2022-08-21T14:01:22;1.75;;;0.65;;
41572;SDS011;27286;47.870;19.006;2022-08-21T14:04:02;1.88;;;0.68;;
41572;SDS011;27286;47.870;19.006;2022-08-21T14:06:33;1.55;;;0.65;;
41572;SDS011;27286;47.870;19.006;2022-08-21T14:09:07;1.02;;;0.50;;
41572;SDS011;27286;47.870;19.006;2022-08-21T14:11:35;6.57;;;0.63;;
41572;SDS011;27286;47.870;19.006;2022-08-21T14:14:05;1.13;;;0.50;;
41572;SDS011;27286;47.870;19.006;2022-08-21T14:16:45;2.78;;;0.60;;
41572;SDS011;27286;47.870;19.006;2022-08-21T14:19:19;1.73;;;0.57;;
41572;SDS011;27286;47.870;19.006;2022-08-21T14:21:47;1.20;;;0.52;;
41572;SDS011;27286;47.870;19.006;2022-08-21T14:24:24;3.00;;;0.85;;
41572;SDS011;27286;47.870;19.006;2022-08-21T14:26:53;1.95;;;0.65;;
41572;SDS011;27286;47.870;19.006;2022-08-21T14:29:35;0.93;;;0.50;;
41572;SDS011;27286;47.870;19.006;2022-08-21T14:35:05;2.08;;;0.60;;
41572;SDS011;27286;47.870;19.006;2022-08-21T14:37:31;1.40;;;0.55;;
41572;SDS011;27286;47.870;19.006;2022-08-21T14:39:57;1.25;;;0.52;;
41572;SDS011;27286;47.870;19.006;2022-08-21T14:42:23;1.45;;;0.65;;
41572;SDS011;27286;47.870;19.006;2022-08-21T14:44:49;1.40;;;0.57;;
41572;SDS011;27286;47.870;19.006;2022-08-21T14:47:15;3.75;;;0.63;;
41572;SDS011;27286;47.870;19.006;2022-08-21T14:49:40;1.20;;;0.63;;
41572;SDS011;27286;47.870;19.006;2022-08-21T14:52:06;1.73;;;0.40;;
41572;SDS011;27286;47.870;19.006;2022-08-21T14:54:31;1.25;;;0.40;;
41572;SDS011;27286;47.870;19.006;2022-08-21T14:57:07;0.68;;;0.38;;
41572;SDS011;27286;47.870;19.006;2022-08-21T14:59:35;0.60;;;0.30;;
41572;SDS011;27286;47.870;19.006;2022-08-21T15:02:02;1.08;;;0.47;;
41572;SDS011;27286;47.870;19.006;2022-08-21T15:04:31;2.08;;;0.40;;
41572;SDS011;27286;47.870;19.006;2022-08-21T15:06:57;0.40;;;0.30;;
41572;SDS011;27286;47.870;19.006;2022-08-21T15:09:22;1.40;;;0.38;;
41572;SDS011;27286;47.870;19.006;2022-08-21T15:11:48;0.88;;;0.30;;
41572;SDS011;27286;47.870;19.006;2022-08-21T15:14:18;1.30;;;0.40;;
41572;SDS011;27286;47.870;19.006;2022-08-21T15:16:48;1.03;;;0.33;;
41572;SDS011;27286;47.870;19.006;2022-08-21T15:19:15;0.93;;;0.40;;
41572;SDS011;27286;47.870;19.006;2022-08-21T15:21:40;1.15;;;0.40;;
41572;SDS011;27286;47.870;19.006;2022-08-21T15:24:06;0.63;;;0.25;;
41572;SDS011;27286;47.870;19.006;2022-08-21T15:26:32;3.25;;;0.40;;
41572;SDS011;27286;47.870;19.006;2022-08-21T15:28:59;1.13;;;0.60;;
41572;SDS011;27286;47.870;19.006;2022-08-21T15:31:24;0.63;;;0.30;;
41572;SDS011;27286;47.870;19.006;2022-08-21T15:33:50;1.15;;;0.30;;
41572;SDS011;27286;47.870;19.006;2022-08-21T15:36:16;0.68;;;0.22;;
41572;SDS011;27286;47.870;19.006;2022-08-21T15:38:42;0.40;;;0.20;;
41572;SDS011;27286;47.870;19.006;2022-08-21T15:41:08;0.63;;;0.32;;
41572;SDS011;27286;47.870;19.006;2022-08-21T15:43:40;0.75;;;0.20;;
41572;SDS011;27286;47.870;19.006;2022-08-21T15:46:12;1.00;;;0.40;;
41572;SDS011;27286;47.870;19.006;2022-08-21T15:48:40;1.35;;;0.40;;
41572;SDS011;27286;47.870;19.006;2022-08-21T15:51:06;1.60;;;0.20;;
41572;SDS011;27286;47.870;19.006;2022-08-21T15:53:32;1.58;;;0.32;;
41572;SDS011;27286;47.870;19.006;2022-08-21T15:56:01;0.70;;;0.22;;
41572;SDS011;27286;47.870;19.006;2022-08-21T15:58:27;2.88;;;0.40;;
41572;SDS011;27286;47.870;19.006;2022-08-21T16:00:53;1.15;;;0.40;;
41572;SDS011;27286;47.870;19.006;2022-08-21T16:03:18;1.80;;;0.50;;
41572;SDS011;27286;47.870;19.006;2022-08-21T16:05:46;0.57;;;0.30;;
41572;SDS011;27286;47.870;19.006;2022-08-21T16:08:14;1.42;;;0.52;;
41572;SDS011;27286;47.870;19.006;2022-08-21T16:10:39;2.10;;;0.30;;
41572;SDS011;27286;47.870;19.006;2022-08-21T16:13:07;0.82;;;0.30;;
41572;SDS011;27286;47.870;19.006;2022-08-21T16:15:58;1.33;;;0.22;;
41572;SDS011;27286;47.870;19.006;2022-08-21T16:18:24;1.63;;;0.55;;
41572;SDS011;27286;47.870;19.006;2022-08-21T16:20:50;1.50;;;0.40;;
41572;SDS011;27286;47.870;19.006;2022-08-21T16:23:16;1.27;;;0.52;;
41572;SDS011;27286;47.870;19.006;2022-08-21T16:25:41;1.25;;;0.38;;
41572;SDS011;27286;47.870;19.006;2022-08-21T16:28:09;3.40;;;0.40;;
41572;SDS011;27286;47.870;19.006;2022-08-21T16:30:37;4.20;;;0.63;;
41572;SDS011;27286;47.870;19.006;2022-08-21T16:33:03;1.38;;;0.40;;
41572;SDS011;27286;47.870;19.006;2022-08-21T16:35:30;1.02;;;0.30;;
41572;SDS011;27286;47.870;19.006;2022-08-21T16:37:56;2.40;;;0.73;;
41572;SDS011;27286;47.870;19.006;2022-08-21T16:40:22;2.17;;;0.47;;
41572;SDS011;27286;47.870;19.006;2022-08-21T16:42:50;1.50;;;0.38;;
41572;SDS011;27286;47.870;19.006;2022-08-21T16:45:17;2.95;;;0.60;;
41572;SDS011;27286;47.870;19.006;2022-08-21T16:47:45;0.75;;;0.30;;
41572;SDS011;27286;47.870;19.006;2022-08-21T16:50:12;2.17;;;0.60;;
41572;SDS011;27286;47.870;19.006;2022-08-21T16:52:41;1.20;;;0.47;;
41572;SDS011;27286;47.870;19.006;2022-08-21T16:55:07;2.00;;;0.50;;
41572;SDS011;27286;47.870;19.006;2022-08-21T16:57:33;1.83;;;0.68;;
41572;SDS011;27286;47.870;19.006;2022-08-21T16:59:59;1.00;;;0.40;;
41572;SDS011;27286;47.870;19.006;2022-08-21T17:02:34;2.00;;;0.90;;
41572;SDS011;27286;47.870;19.006;2022-08-21T17:05:02;0.98;;;0.52;;